Time;durP1;ratioP1;P1;durP2;ratioP2;P2;SDS_P1;SDS_P2;PMS_P1;PMS_P2;Temp;Humidity;BMP_temperature;BMP_pressure;BME280_temperature;BME280_humidity;BME280_pressure;Samples;Min_cycle;Max_cycle;Signal;HPM_P1;HPM_P2
2022/05/14 00:00:50;;;;;;;3.17;2.97;;;13.50;99.90;;;;;;5123634;28;21003;-62
2022/05/14 00:03:21;;;;;;;3.90;2.67;;;13.70;99.90;;;;;;5121201;27;20457;-61
2022/05/14 00:05:55;;;;;;;4.07;3.27;;;13.70;99.90;;;;;;5120224;27;20458;-60
2022/05/14 00:08:27;;;;;;;2.73;2.50;;;13.70;99.90;;;;;;5127285;27;21130;-61
2022/05/14 00:13:46;;;;;;;3.30;3.00;;;13.60;99.90;;;;;;5124961;27;20547;-63
2022/05/14 00:16:18;;;;;;;4.60;3.40;;;13.60;99.90;;;;;;5132911;27;20448;-61
2022/05/14 00:18:49;;;;;;;3.97;3.57;;;13.60;99.90;;;;;;5126682;27;20485;-61
2022/05/14 00:21:23;;;;;;;4.00;3.70;;;13.50;99.90;;;;;;5136977;27;20445;-62
2022/05/14 00:23:54;;;;;;;4.30;3.70;;;13.50;99.90;;;;;;5114947;27;20457;-63
2022/05/14 00:26:24;;;;;;;3.50;3.20;;;13.50;99.90;;;;;;5134734;27;20842;-63
2022/05/14 00:28:56;;;;;;;3.70;3.30;;;13.60;99.90;;;;;;5121651;28;20525;-63
2022/05/14 00:31:27;;;;;;;4.07;3.67;;;13.40;99.90;;;;;;5113988;27;20449;-64
2022/05/14 00:33:59;;;;;;;6.17;3.57;;;13.30;99.90;;;;;;5112883;27;20450;-63
2022/05/14 00:36:31;;;;;;;3.93;3.63;;;13.40;99.90;;;;;;5120545;27;20484;-63
2022/05/14 00:39:02;;;;;;;5.40;4.90;;;13.20;99.90;;;;;;5122110;28;20473;-62
2022/05/14 00:41:35;;;;;;;4.90;3.87;;;13.10;99.90;;;;;;5124855;27;20440;-63
2022/05/14 00:44:06;;;;;;;5.17;4.70;;;13.00;99.90;;;;;;5136442;27;20479;-63
2022/05/14 00:46:45;;;;;;;3.93;3.60;;;12.90;99.90;;;;;;5116489;27;20449;-62
2022/05/14 00:49:17;;;;;;;4.57;3.90;;;12.60;99.90;;;;;;5121423;27;20489;-62
2022/05/14 00:51:50;;;;;;;5.03;3.53;;;12.70;99.90;;;;;;5122440;27;20453;-61
2022/05/14 00:54:25;;;;;;;3.70;3.40;;;12.60;99.90;;;;;;5126429;27;20472;-62
2022/05/14 00:57:00;;;;;;;3.23;3.00;;;12.50;99.90;;;;;;5122020;27;20459;-63
2022/05/14 00:59:31;;;;;;;3.97;3.67;;;12.40;99.90;;;;;;5122690;27;20468;-63
2022/05/14 01:02:02;;;;;;;5.40;3.90;;;12.50;99.90;;;;;;5123642;28;20434;-64
2022/05/14 01:04:33;;;;;;;3.80;3.47;;;12.60;99.90;;;;;;5122233;27;20480;-63
2022/05/14 01:07:11;;;;;;;4.27;3.53;;;12.50;99.90;;;;;;5125947;27;20461;-63
2022/05/14 01:09:44;;;;;;;5.60;3.57;;;12.60;99.90;;;;;;5123431;27;20485;-63
2022/05/14 01:12:17;;;;;;;4.10;3.60;;;12.50;99.90;;;;;;5133795;27;20503;-62
2022/05/14 01:14:48;;;;;;;4.80;4.10;;;12.40;99.90;;;;;;5130949;27;20899;-62
2022/05/14 01:17:18;;;;;;;4.60;4.20;;;12.30;99.90;;;;;;5118509;27;20466;-62
2022/05/14 01:19:49;;;;;;;6.07;4.17;;;12.30;99.90;;;;;;5120635;27;20456;-62
2022/05/14 01:22:35;;;;;;;4.10;3.70;;;12.10;99.90;;;;;;5118529;27;20574;-62
2022/05/14 01:28:05;;;;;;;5.03;4.30;;;12.10;99.90;;;;;;5121122;28;20458;-61
2022/05/14 01:30:35;;;;;;;4.47;3.73;;;12.10;99.90;;;;;;5114088;27;20524;-61
2022/05/14 01:33:06;;;;;;;4.00;3.70;;;12.10;99.90;;;;;;5117600;28;20466;-61
2022/05/14 01:35:39;;;;;;;5.37;4.67;;;12.00;99.90;;;;;;5120115;27;20513;-61
2022/05/14 01:38:10;;;;;;;5.50;4.53;;;11.90;99.90;;;;;;5120769;28;20444;-61
2022/05/14 01:40:41;;;;;;;5.60;5.10;;;11.80;99.90;;;;;;5120042;27;20447;-61
2022/05/14 01:43:13;;;;;;;4.43;4.03;;;11.80;99.90;;;;;;5125105;27;20521;-60
2022/05/14 01:45:44;;;;;;;5.10;4.23;;;11.80;99.90;;;;;;5113455;28;20461;-59
2022/05/14 01:48:15;;;;;;;6.57;4.77;;;11.80;99.90;;;;;;5119753;28;20453;-60
2022/05/14 01:50:46;;;;;;;5.90;4.60;;;11.80;99.90;;;;;;5111461;28;20488;-61
2022/05/14 01:53:17;;;;;;;4.67;4.27;;;11.80;99.90;;;;;;5121958;28;20445;-60
2022/05/14 01:55:47;;;;;;;4.67;4.27;;;11.80;99.90;;;;;;5119183;27;20459;-61
2022/05/14 01:58:38;;;;;;;6.83;5.20;;;11.90;99.90;;;;;;5106318;28;20446;-62
2022/05/14 02:01:10;;;;;;;4.90;4.50;;;11.70;99.90;;;;;;5126184;27;20465;-61
2022/05/14 02:03:42;;;;;;;6.20;5.40;;;11.80;99.90;;;;;;5120023;28;20485;-60
2022/05/14 02:06:14;;;;;;;5.60;5.10;;;11.80;99.90;;;;;;5121997;27;20461;-61
2022/05/14 02:08:44;;;;;;;5.77;5.20;;;11.80;99.90;;;;;;5105231;28;21205;-61
2022/05/14 02:11:16;;;;;;;6.53;5.20;;;11.80;99.90;;;;;;5119290;28;20480;-61
2022/05/14 02:13:50;;;;;;;5.83;5.23;;;11.80;99.90;;;;;;5121611;28;20522;-60
2022/05/14 02:16:21;;;;;;;6.53;5.47;;;11.70;99.90;;;;;;5114556;28;20813;-62
2022/05/14 02:18:52;;;;;;;6.70;5.43;;;11.70;99.90;;;;;;5117053;28;20569;-61
2022/05/14 02:21:24;;;;;;;7.57;6.87;;;11.70;99.90;;;;;;5127356;28;20453;-60
2022/05/14 02:23:56;;;;;;;7.43;6.70;;;11.60;99.90;;;;;;5124462;27;20457;-61
2022/05/14 02:26:27;;;;;;;7.30;5.47;;;11.70;99.90;;;;;;5120222;27;20778;-60
2022/05/14 02:28:59;;;;;;;7.47;6.77;;;11.70;99.90;;;;;;5135611;27;20533;-61
2022/05/14 02:31:31;;;;;;;6.90;6.20;;;11.70;99.90;;;;;;5131496;27;20548;-60
2022/05/14 02:34:02;;;;;;;6.93;6.23;;;11.70;99.90;;;;;;5121887;27;20491;-61
2022/05/14 02:36:33;;;;;;;8.83;6.00;;;11.70;99.90;;;;;;5127841;27;20488;-61
2022/05/14 02:39:04;;;;;;;7.03;6.43;;;11.60;99.90;;;;;;5141755;27;20509;-60
2022/05/14 02:41:35;;;;;;;7.20;6.50;;;11.60;99.90;;;;;;5140770;27;20455;-60
2022/05/14 02:44:08;;;;;;;6.97;6.30;;;11.60;99.90;;;;;;5131795;27;20814;-61
2022/05/14 02:46:39;;;;;;;7.90;6.50;;;11.70;99.90;;;;;;5126020;27;20448;-62
2022/05/14 02:49:10;;;;;;;7.63;6.23;;;11.70;99.90;;;;;;5129684;27;21229;-60
2022/05/14 02:51:40;;;;;;;6.80;5.93;;;11.70;99.90;;;;;;5138369;27;20784;-62
2022/05/14 02:54:11;;;;;;;7.20;6.50;;;11.70;99.90;;;;;;5125546;27;20449;-61
2022/05/14 02:56:42;;;;;;;5.70;5.10;;;11.70;99.90;;;;;;5128817;27;20457;-61
2022/05/14 02:59:15;;;;;;;8.47;5.80;;;11.60;99.90;;;;;;5123778;28;20454;-61
2022/05/14 03:01:52;;;;;;;6.20;5.60;;;11.60;99.90;;;;;;5123657;27;20481;-61
2022/05/14 03:04:25;;;;;;;7.03;6.33;;;11.60;99.90;;;;;;5125997;27;20446;-62
2022/05/14 03:06:57;;;;;;;6.40;5.53;;;11.60;99.90;;;;;;5114044;27;20463;-62
2022/05/14 03:09:28;;;;;;;6.17;5.17;;;11.50;99.90;;;;;;5124909;27;20468;-61
2022/05/14 03:11:59;;;;;;;5.83;5.07;;;11.40;99.90;;;;;;5136945;27;20492;-61
2022/05/14 03:14:31;;;;;;;7.07;5.70;;;11.40;99.90;;;;;;5127564;27;20468;-61
2022/05/14 03:17:02;;;;;;;6.33;5.60;;;11.40;99.90;;;;;;5126328;27;20473;-61
2022/05/14 03:19:34;;;;;;;6.53;5.20;;;11.40;99.90;;;;;;5125314;27;20536;-60
2022/05/14 03:22:06;;;;;;;4.97;4.57;;;11.30;99.90;;;;;;5113071;28;20514;-61
2022/05/14 03:24:39;;;;;;;5.70;4.80;;;11.30;99.90;;;;;;5125401;27;20506;-61
2022/05/14 03:27:12;;;;;;;5.63;4.80;;;11.20;99.90;;;;;;5128564;27;20545;-61
2022/05/14 03:29:45;;;;;;;4.47;4.07;;;11.30;99.90;;;;;;5126293;27;20456;-61
2022/05/14 03:32:18;;;;;;;6.17;5.00;;;11.20;99.90;;;;;;5136424;27;20512;-63
2022/05/14 03:34:49;;;;;;;5.40;4.90;;;11.20;99.90;;;;;;5129240;27;20466;-61
2022/05/14 03:37:20;;;;;;;5.93;5.10;;;11.10;99.90;;;;;;5112370;28;20454;-61
2022/05/14 03:39:51;;;;;;;4.87;4.47;;;11.20;99.90;;;;;;5109584;28;20459;-61
2022/05/14 03:42:21;;;;;;;6.20;5.43;;;11.10;99.90;;;;;;5121395;27;20475;-61
2022/05/14 03:44:54;;;;;;;5.97;5.37;;;11.00;99.90;;;;;;5122845;27;20458;-61
2022/05/14 03:47:26;;;;;;;7.97;5.20;;;10.90;99.90;;;;;;5119906;27;20457;-61
2022/05/14 03:49:56;;;;;;;6.20;5.20;;;11.00;99.90;;;;;;5123334;28;20481;-59
2022/05/14 03:52:27;;;;;;;7.90;5.10;;;11.00;99.90;;;;;;5123866;28;20545;-62
2022/05/14 03:54:58;;;;;;;6.60;5.90;;;10.90;99.90;;;;;;5111603;28;20767;-61
2022/05/14 03:57:29;;;;;;;6.80;6.10;;;10.90;99.90;;;;;;5104110;28;20461;-61
2022/05/14 04:00:02;;;;;;;8.97;6.20;;;10.90;99.90;;;;;;5111015;27;20539;-61
2022/05/14 04:02:34;;;;;;;7.90;6.63;;;10.80;99.90;;;;;;5134849;27;20490;-61
2022/05/14 04:05:05;;;;;;;9.07;6.40;;;10.90;99.90;;;;;;5144722;27;20448;-61
2022/05/14 04:07:36;;;;;;;6.30;5.70;;;10.90;99.90;;;;;;5129381;27;20445;-62
2022/05/14 04:10:08;;;;;;;6.53;5.63;;;11.00;99.90;;;;;;5144126;27;20460;-61
2022/05/14 04:12:40;;;;;;;6.10;5.37;;;10.90;99.90;;;;;;5122108;27;20490;-61
2022/05/14 04:15:14;;;;;;;5.93;5.40;;;10.80;99.90;;;;;;5125662;27;20446;-60
2022/05/14 04:17:45;;;;;;;7.40;5.63;;;10.80;99.90;;;;;;5129229;27;20513;-60
2022/05/14 04:20:16;;;;;;;6.00;5.40;;;10.70;99.90;;;;;;5123215;28;20469;-59
2022/05/14 04:22:49;;;;;;;6.23;5.63;;;10.80;99.90;;;;;;5129098;27;20487;-61
2022/05/14 04:25:21;;;;;;;6.20;5.60;;;10.70;99.90;;;;;;5123647;27;20452;-60
2022/05/14 04:27:57;;;;;;;7.00;6.30;;;10.80;99.90;;;;;;5125274;27;20468;-59
2022/05/14 04:30:29;;;;;;;6.03;5.43;;;10.70;99.90;;;;;;5123061;28;20458;-59
2022/05/14 04:33:00;;;;;;;8.53;6.83;;;10.70;99.90;;;;;;5123149;28;20469;-60
2022/05/14 04:35:31;;;;;;;6.57;5.73;;;10.70;99.90;;;;;;5123166;27;20465;-60
2022/05/14 04:38:01;;;;;;;6.97;6.17;;;10.80;99.90;;;;;;5124804;27;20452;-60
2022/05/14 04:40:32;;;;;;;6.73;6.03;;;10.70;99.90;;;;;;5131671;27;20449;-60
2022/05/14 04:43:06;;;;;;;7.60;6.70;;;10.80;99.90;;;;;;5140629;27;20457;-60
2022/05/14 04:45:39;;;;;;;7.57;6.60;;;10.80;99.90;;;;;;5127801;27;20555;-60
2022/05/14 04:48:11;;;;;;;6.70;5.70;;;10.70;99.90;;;;;;5126750;27;20540;-61
2022/05/14 04:50:42;;;;;;;7.00;6.30;;;10.80;99.90;;;;;;5123433;27;20489;-61
2022/05/14 04:53:12;;;;;;;8.07;6.10;;;10.80;99.90;;;;;;5107273;28;20442;-61
2022/05/14 04:55:44;;;;;;;6.33;5.67;;;10.80;99.90;;;;;;5114870;27;20453;-62
2022/05/14 04:58:15;;;;;;;7.07;6.37;;;10.80;99.90;;;;;;5115693;27;20462;-61
2022/05/14 05:00:49;;;;;;;7.20;5.60;;;10.70;99.90;;;;;;5122107;28;20468;-62
2022/05/14 05:03:19;;;;;;;7.53;6.20;;;10.80;99.90;;;;;;5128794;27;20529;-61
2022/05/14 05:05:52;;;;;;;7.33;5.97;;;10.80;99.90;;;;;;5126186;27;20472;-62
2022/05/14 05:08:24;;;;;;;9.50;6.77;;;10.70;99.90;;;;;;5113108;27;20461;-62
2022/05/14 05:10:55;;;;;;;6.83;5.97;;;10.80;99.90;;;;;;5122925;27;20544;-61
2022/05/14 05:13:28;;;;;;;6.93;5.83;;;10.80;99.90;;;;;;5122595;27;20453;-61
2022/05/14 05:16:00;;;;;;;7.00;6.30;;;10.80;99.90;;;;;;5134169;27;20471;-61
2022/05/14 05:18:31;;;;;;;6.17;5.57;;;10.80;99.90;;;;;;5132301;27;20456;-62
2022/05/14 05:21:02;;;;;;;7.77;6.97;;;10.80;99.90;;;;;;5118157;28;20453;-61
2022/05/14 05:23:33;;;;;;;7.20;6.50;;;10.80;99.90;;;;;;5119757;28;20446;-60
2022/05/14 05:26:04;;;;;;;7.10;6.40;;;10.80;99.90;;;;;;5114845;27;20461;-61
2022/05/14 05:28:35;;;;;;;6.53;5.87;;;10.80;99.90;;;;;;5132250;27;20456;-61
2022/05/14 05:31:07;;;;;;;6.33;5.77;;;10.80;99.90;;;;;;5124137;27;20465;-61
2022/05/14 05:33:39;;;;;;;7.40;6.37;;;10.90;99.90;;;;;;5126074;27;20457;-61
2022/05/14 05:36:09;;;;;;;7.43;6.53;;;10.90;99.90;;;;;;5128042;27;20445;-61
2022/05/14 05:38:40;;;;;;;7.53;6.20;;;10.90;99.90;;;;;;5119571;27;20465;-61
2022/05/14 05:41:11;;;;;;;7.43;6.60;;;10.90;99.90;;;;;;5122056;28;20537;-61
2022/05/14 05:43:43;;;;;;;6.77;6.13;;;10.90;99.90;;;;;;5123212;27;20454;-61
2022/05/14 05:46:15;;;;;;;7.00;6.30;;;10.90;99.90;;;;;;5120524;28;20453;-61
2022/05/14 05:48:46;;;;;;;7.33;5.50;;;10.80;99.90;;;;;;5123158;28;20460;-61
2022/05/14 05:51:18;;;;;;;6.77;6.17;;;10.70;99.90;;;;;;5123219;28;20483;-62
2022/05/14 05:56:56;;;;;;;6.00;5.50;;;10.80;99.90;;;;;;5127630;27;20453;-60
2022/05/14 05:59:28;;;;;;;6.03;5.43;;;10.90;99.90;;;;;;5117217;27;20461;-60
2022/05/14 06:02:01;;;;;;;5.53;5.03;;;10.90;99.90;;;;;;5123248;28;20457;-60
2022/05/14 06:04:32;;;;;;;5.33;4.87;;;10.80;99.90;;;;;;5120155;28;20465;-60
2022/05/14 06:07:02;;;;;;;6.93;6.13;;;10.80;99.90;;;;;;5126374;28;20574;-60
2022/05/14 06:09:33;;;;;;;6.40;5.27;;;10.80;99.90;;;;;;5113692;28;20458;-60
2022/05/14 06:12:04;;;;;;;6.00;5.40;;;10.70;99.90;;;;;;5112740;28;20489;-60
2022/05/14 06:14:35;;;;;;;6.57;4.50;;;10.70;99.90;;;;;;5120101;28;20565;-60
2022/05/14 06:17:08;;;;;;;6.10;5.50;;;10.80;99.90;;;;;;5120050;28;20466;-60
2022/05/14 06:19:39;;;;;;;5.97;5.00;;;10.80;99.90;;;;;;5127172;28;20472;-60
2022/05/14 06:22:10;;;;;;;6.73;5.73;;;10.70;99.90;;;;;;5121030;28;20476;-60
2022/05/14 06:24:41;;;;;;;9.30;5.93;;;10.70;99.90;;;;;;5118605;28;20525;-62
2022/05/14 06:27:14;;;;;;;5.80;5.13;;;10.70;99.90;;;;;;5121835;28;20597;-60
2022/05/14 06:29:46;;;;;;;7.17;6.47;;;10.70;99.90;;;;;;5124250;28;20465;-60
2022/05/14 06:32:18;;;;;;;6.17;5.57;;;10.80;99.90;;;;;;5121651;28;20549;-60
2022/05/14 06:34:49;;;;;;;5.33;4.83;;;10.70;99.90;;;;;;5122603;28;20468;-60
2022/05/14 06:37:19;;;;;;;5.77;5.27;;;10.70;99.90;;;;;;5124600;27;20458;-60
2022/05/14 06:39:50;;;;;;;5.40;4.90;;;10.80;99.90;;;;;;5119565;28;20461;-60
2022/05/14 06:42:21;;;;;;;5.00;4.43;;;10.70;99.90;;;;;;5116843;28;20462;-60
2022/05/14 06:44:53;;;;;;;6.03;5.40;;;10.80;99.90;;;;;;5123037;28;20534;-60
2022/05/14 06:47:26;;;;;;;5.27;4.77;;;10.80;99.90;;;;;;5127260;27;20462;-60
2022/05/14 06:49:57;;;;;;;5.87;5.27;;;10.70;99.90;;;;;;5129368;28;20489;-60
2022/05/14 06:52:28;;;;;;;4.70;4.20;;;10.80;99.90;;;;;;5121767;28;20481;-61
2022/05/14 06:54:59;;;;;;;5.27;4.77;;;10.70;99.90;;;;;;5127112;28;20442;-61
2022/05/14 06:57:31;;;;;;;5.27;4.77;;;10.70;99.90;;;;;;5121914;28;20476;-61
2022/05/14 07:00:03;;;;;;;6.07;5.43;;;10.80;99.90;;;;;;5120220;28;20473;-61
2022/05/14 07:02:37;;;;;;;4.90;3.90;;;10.80;99.90;;;;;;5122570;28;20587;-61
2022/05/14 07:07:57;;;;;;;5.67;3.90;;;10.90;99.90;;;;;;5120762;28;20537;-61
2022/05/14 07:10:28;;;;;;;4.60;4.20;;;10.90;99.90;;;;;;5121889;28;20464;-62
2022/05/14 07:12:58;;;;;;;5.67;5.17;;;10.90;99.90;;;;;;5123511;28;20484;-61
2022/05/14 07:15:29;;;;;;;5.27;4.00;;;10.80;99.90;;;;;;5109918;27;20463;-61
2022/05/14 07:18:01;;;;;;;4.20;3.90;;;10.80;99.90;;;;;;5114140;27;20456;-62
2022/05/14 07:20:32;;;;;;;4.27;3.87;;;10.80;99.90;;;;;;5124430;28;20469;-59
2022/05/14 07:23:04;;;;;;;3.70;3.40;;;10.80;99.90;;;;;;5126905;27;20468;-61
2022/05/14 07:25:34;;;;;;;3.40;3.20;;;10.80;99.90;;;;;;5125005;27;21035;-62
2022/05/14 07:28:08;;;;;;;4.67;4.00;;;10.90;99.90;;;;;;5130149;27;21095;-60
2022/05/14 07:30:42;;;;;;;5.10;4.17;;;10.90;99.90;;;;;;5113272;28;20473;-60
2022/05/14 07:33:14;;;;;;;4.07;3.67;;;10.80;99.90;;;;;;5123364;28;20493;-60
2022/05/14 07:35:45;;;;;;;3.93;3.53;;;10.90;99.90;;;;;;5128624;27;20461;-60
2022/05/14 07:38:16;;;;;;;4.23;3.83;;;10.80;99.90;;;;;;5126010;27;20808;-60
2022/05/14 07:40:47;;;;;;;3.63;3.33;;;10.90;99.90;;;;;;5132259;27;20457;-60
2022/05/14 07:43:24;;;;;;;4.57;4.13;;;10.90;99.90;;;;;;5124736;28;20453;-60
2022/05/14 07:45:58;;;;;;;4.30;3.23;;;10.90;99.90;;;;;;5124223;27;20461;-60
2022/05/14 07:48:35;;;;;;;4.40;4.00;;;10.90;99.90;;;;;;5126461;27;20449;-61
2022/05/14 07:51:07;;;;;;;4.03;3.50;;;10.90;99.90;;;;;;5124299;28;20571;-60
2022/05/14 07:53:39;;;;;;;4.30;3.90;;;10.90;99.90;;;;;;5120995;27;20492;-61
2022/05/14 07:56:10;;;;;;;4.30;3.70;;;10.90;99.90;;;;;;5134906;27;20789;-61
2022/05/14 07:58:42;;;;;;;3.87;3.33;;;11.00;99.90;;;;;;5127776;27;20454;-60
2022/05/14 08:01:13;;;;;;;4.20;3.63;;;11.10;99.90;;;;;;5124716;27;20473;-61
2022/05/14 08:03:47;;;;;;;5.03;4.60;;;11.00;99.90;;;;;;5136778;27;20536;-61
2022/05/14 08:06:19;;;;;;;5.20;3.90;;;11.10;99.90;;;;;;5129813;27;20468;-61
2022/05/14 08:08:50;;;;;;;4.10;3.67;;;11.00;99.90;;;;;;5123517;27;20949;-61
2022/05/14 08:11:21;;;;;;;4.30;3.73;;;10.90;99.90;;;;;;5126224;27;20466;-62
2022/05/14 08:13:54;;;;;;;5.30;3.47;;;10.90;99.90;;;;;;5123523;27;20478;-61
2022/05/14 08:16:25;;;;;;;6.40;4.17;;;11.00;99.90;;;;;;5125084;27;20469;-61
2022/05/14 08:18:57;;;;;;;3.67;3.40;;;10.90;99.90;;;;;;5123328;28;20549;-61
2022/05/14 08:24:36;;;;;;;4.73;4.00;;;11.00;99.90;;;;;;5122110;28;20462;-61
2022/05/14 08:27:09;;;;;;;4.20;3.80;;;10.90;99.90;;;;;;5122691;27;20472;-61
2022/05/14 08:29:45;;;;;;;4.80;4.40;;;10.90;99.90;;;;;;5124956;27;20461;-61
2022/05/14 08:32:18;;;;;;;4.87;4.47;;;10.90;99.90;;;;;;5123611;27;20457;-61
2022/05/14 08:34:50;;;;;;;4.77;4.37;;;10.90;99.90;;;;;;5123569;27;20499;-61
2022/05/14 08:37:24;;;;;;;6.60;5.40;;;11.00;99.90;;;;;;5131299;27;20465;-61
2022/05/14 08:39:55;;;;;;;5.53;4.73;;;11.00;99.90;;;;;;5121901;27;20469;-61
2022/05/14 08:42:26;;;;;;;5.40;4.90;;;11.00;99.90;;;;;;5112580;27;20473;-61
2022/05/14 08:44:58;;;;;;;5.67;4.93;;;11.00;99.90;;;;;;5118385;27;20461;-61
2022/05/14 08:47:32;;;;;;;5.97;5.47;;;11.00;99.90;;;;;;5116181;28;20483;-61
2022/05/14 08:50:06;;;;;;;5.30;4.80;;;11.00;99.90;;;;;;5121873;27;20477;-61
2022/05/14 08:52:39;;;;;;;6.10;5.60;;;11.00;99.90;;;;;;5124118;27;20467;-61
2022/05/14 08:55:13;;;;;;;4.90;4.40;;;11.00;99.90;;;;;;5122181;27;20493;-61
2022/05/14 08:57:51;;;;;;;5.93;5.30;;;11.10;99.90;;;;;;5117903;28;20466;-61
2022/05/14 09:00:22;;;;;;;6.13;4.50;;;10.90;99.90;;;;;;5126203;27;20472;-61
2022/05/14 09:02:55;;;;;;;5.20;4.70;;;10.90;99.90;;;;;;5130529;27;20458;-61
2022/05/14 09:05:32;;;;;;;5.30;4.80;;;11.00;99.90;;;;;;5122436;27;20458;-61
2022/05/14 09:08:03;;;;;;;6.47;5.87;;;11.00;99.90;;;;;;5122874;28;20464;-61
2022/05/14 09:10:37;;;;;;;6.57;5.97;;;11.10;99.90;;;;;;5111844;28;20459;-61
2022/05/14 09:13:14;;;;;;;6.47;5.87;;;11.10;99.90;;;;;;5136072;27;20463;-61
2022/05/14 09:15:55;;;;;;;5.63;5.13;;;11.20;99.90;;;;;;5132003;27;20472;-61
2022/05/14 09:18:29;;;;;;;5.10;4.63;;;11.20;99.90;;;;;;5122322;28;20461;-61
2022/05/14 09:21:04;;;;;;;4.83;4.43;;;11.20;99.90;;;;;;5122991;27;21012;-61
2022/05/14 09:23:42;;;;;;;4.90;4.50;;;11.10;99.90;;;;;;5121675;27;20469;-61
2022/05/14 09:26:17;;;;;;;4.90;4.40;;;11.10;99.90;;;;;;5129210;27;20444;-61
2022/05/14 09:28:54;;;;;;;5.50;4.23;;;11.20;99.90;;;;;;5122166;28;20473;-61
2022/05/14 09:31:27;;;;;;;4.53;4.13;;;11.20;99.90;;;;;;5122706;27;20592;-61
2022/05/14 09:34:08;;;;;;;5.07;4.67;;;11.20;99.90;;;;;;5132788;27;20497;-61
2022/05/14 09:36:45;;;;;;;5.53;3.77;;;11.20;99.90;;;;;;5122866;27;20450;-61
2022/05/14 09:39:18;;;;;;;4.60;4.20;;;11.20;99.90;;;;;;5121888;28;20546;-61
2022/05/14 09:41:51;;;;;;;4.40;4.00;;;11.20;99.90;;;;;;5121077;27;20583;-61
2022/05/14 09:44:24;;;;;;;4.57;4.20;;;11.20;99.90;;;;;;5122036;28;20476;-61
2022/05/14 09:47:08;;;;;;;4.50;4.13;;;11.30;99.90;;;;;;5122077;27;20470;-61
2022/05/14 09:49:41;;;;;;;4.70;4.30;;;11.30;99.90;;;;;;5123379;27;20485;-61
2022/05/14 09:52:26;;;;;;;5.40;4.90;;;11.30;99.90;;;;;;5123140;27;20473;-61
2022/05/14 09:54:58;;;;;;;4.87;4.37;;;11.30;99.90;;;;;;5114106;28;20552;-61
2022/05/14 09:57:44;;;;;;;5.07;4.67;;;11.30;99.90;;;;;;5133677;27;20536;-61
2022/05/14 10:00:20;;;;;;;5.60;5.10;;;11.30;99.90;;;;;;5110742;28;20458;-61
2022/05/14 10:02:59;;;;;;;5.60;5.10;;;11.40;99.90;;;;;;5120997;28;20465;-61
2022/05/14 10:05:48;;;;;;;5.13;4.63;;;11.30;99.90;;;;;;5124796;27;20448;-61
2022/05/14 10:08:39;;;;;;;4.77;4.27;;;11.40;99.90;;;;;;5122869;27;20541;-61
2022/05/14 10:11:21;;;;;;;5.00;4.53;;;11.30;99.90;;;;;;5120918;28;20474;-61
2022/05/14 10:14:04;;;;;;;5.13;4.63;;;11.30;99.90;;;;;;5107832;28;20500;-61
2022/05/14 10:16:39;;;;;;;4.20;3.50;;;11.40;99.90;;;;;;5122953;28;20534;-61
2022/05/14 10:19:25;;;;;;;5.43;4.40;;;11.50;99.90;;;;;;5122055;28;20457;-62
2022/05/14 10:22:09;;;;;;;4.40;3.70;;;11.50;99.90;;;;;;5124059;27;20471;-61
2022/05/14 10:28:06;;;;;;;3.93;3.60;;;11.40;99.90;;;;;;5120242;28;20464;-61
2022/05/14 10:30:48;;;;;;;3.70;3.40;;;11.30;99.90;;;;;;5121456;28;20864;-61
2022/05/14 10:33:25;;;;;;;3.37;3.07;;;11.30;99.90;;;;;;5119685;28;20473;-61
2022/05/14 10:35:59;;;;;;;3.93;3.53;;;11.40;99.90;;;;;;5125623;28;20800;-61
2022/05/14 10:38:36;;;;;;;5.13;3.70;;;11.50;99.90;;;;;;5117828;27;20460;-61
2022/05/14 10:41:11;;;;;;;4.40;4.00;;;11.50;99.90;;;;;;5138661;27;20460;-61
2022/05/14 10:43:50;;;;;;;4.50;4.10;;;11.50;99.90;;;;;;5124455;27;20457;-61
2022/05/14 10:46:22;;;;;;;4.50;4.10;;;11.40;99.90;;;;;;5126865;27;20461;-61
2022/05/14 10:48:57;;;;;;;3.90;2.83;;;11.40;99.90;;;;;;5124897;27;20461;-62
2022/05/14 10:51:31;;;;;;;3.80;3.50;;;11.40;99.90;;;;;;5125167;27;20457;-61
2022/05/14 10:54:03;;;;;;;4.70;3.20;;;11.40;99.90;;;;;;5109415;27;20449;-61
2022/05/14 10:56:39;;;;;;;2.83;2.53;;;11.40;99.90;;;;;;5124684;28;20466;-61
2022/05/14 10:59:12;;;;;;;3.47;3.17;;;11.40;99.90;;;;;;5126017;27;20457;-61
2022/05/14 11:01:46;;;;;;;2.50;2.30;;;11.40;99.90;;;;;;5125174;27;20453;-61
2022/05/14 11:04:21;;;;;;;2.83;2.30;;;11.40;99.90;;;;;;5124702;28;20453;-61
2022/05/14 11:06:56;;;;;;;2.80;2.60;;;11.50;99.90;;;;;;5125002;27;20468;-61
2022/05/14 11:09:39;;;;;;;2.90;2.70;;;11.50;99.90;;;;;;5128305;27;20465;-61
2022/05/14 11:12:15;;;;;;;2.73;2.53;;;11.50;99.90;;;;;;5116667;27;20472;-60
2022/05/14 11:14:49;;;;;;;2.20;2.10;;;11.50;99.90;;;;;;5124690;27;20820;-61
2022/05/14 11:17:25;;;;;;;2.50;2.30;;;11.50;99.90;;;;;;5114226;28;20462;-61
2022/05/14 11:20:12;;;;;;;2.53;2.17;;;11.50;99.90;;;;;;5126695;27;20553;-60
2022/05/14 11:22:45;;;;;;;2.60;2.40;;;11.50;99.90;;;;;;5117097;27;20454;-61
2022/05/14 11:25:23;;;;;;;2.53;2.33;;;11.50;99.90;;;;;;5123936;27;20502;-61
2022/05/14 11:28:01;;;;;;;2.53;2.33;;;11.50;99.90;;;;;;5123703;27;20457;-61
2022/05/14 11:30:42;;;;;;;2.60;2.40;;;11.50;99.90;;;;;;5123350;28;20537;-61
2022/05/14 11:33:23;;;;;;;2.67;2.47;;;11.50;99.90;;;;;;5123932;28;20457;-61
2022/05/14 11:35:56;;;;;;;2.17;1.97;;;11.50;99.90;;;;;;5121612;27;20492;-61
2022/05/14 11:38:36;;;;;;;2.20;2.00;;;11.60;99.90;;;;;;5142614;27;20471;-61
2022/05/14 11:41:09;;;;;;;2.53;2.43;;;11.60;99.90;;;;;;5125647;27;20461;-61
2022/05/14 11:43:51;;;;;;;2.40;2.20;;;11.50;99.90;;;;;;5143409;27;20822;-61
2022/05/14 11:46:28;;;;;;;2.47;2.27;;;11.60;99.90;;;;;;5127820;27;20466;-61
2022/05/14 11:49:06;;;;;;;2.60;2.03;;;11.60;99.90;;;;;;5127176;27;20466;-61
2022/05/14 11:51:45;;;;;;;2.57;2.37;;;11.50;99.90;;;;;;5127199;27;20488;-61
2022/05/14 11:54:22;;;;;;;2.20;2.10;;;11.60;99.90;;;;;;5122985;28;20461;-61
2022/05/14 11:56:57;;;;;;;2.47;2.27;;;11.60;99.90;;;;;;5126799;27;20483;-61
2022/05/14 11:59:35;;;;;;;3.93;2.93;;;11.60;99.90;;;;;;5137276;27;20455;-61
2022/05/14 12:02:14;;;;;;;2.63;2.40;;;11.60;99.90;;;;;;5123450;27;20483;-61
2022/05/14 12:04:51;;;;;;;2.87;2.67;;;11.70;99.90;;;;;;5116613;28;20469;-61
2022/05/14 12:07:36;;;;;;;2.93;2.63;;;11.60;99.90;;;;;;5128493;27;20465;-61
2022/05/14 12:10:27;;;;;;;2.47;2.30;;;11.60;99.90;;;;;;5113402;27;20484;-60
2022/05/14 12:13:09;;;;;;;2.90;2.70;;;11.50;99.90;;;;;;5124497;28;20937;-61
2022/05/14 12:15:51;;;;;;;3.00;2.50;;;11.60;99.90;;;;;;5108399;27;20490;-61
2022/05/14 12:18:22;;;;;;;2.40;2.20;;;11.60;99.90;;;;;;5132801;27;20475;-61
2022/05/14 12:20:57;;;;;;;2.00;1.80;;;11.60;99.90;;;;;;5117727;27;20458;-60
2022/05/14 12:23:37;;;;;;;2.83;2.23;;;11.70;99.90;;;;;;5122899;28;20461;-61
2022/05/14 12:26:19;;;;;;;2.40;2.20;;;11.70;99.90;;;;;;5122441;27;20465;-61
2022/05/14 12:28:50;;;;;;;2.77;2.40;;;11.70;99.90;;;;;;5129527;27;20468;-61
2022/05/14 12:34:17;;;;;;;2.60;2.40;;;11.70;99.90;;;;;;5122748;28;20457;-61
2022/05/14 12:36:53;;;;;;;2.90;2.40;;;11.80;99.90;;;;;;5123138;27;20490;-61
2022/05/14 12:39:26;;;;;;;2.60;2.20;;;11.70;99.90;;;;;;5125185;27;20450;-60
2022/05/14 12:41:59;;;;;;;3.70;3.40;;;11.70;99.90;;;;;;5123866;28;20576;-61
2022/05/14 12:44:33;;;;;;;2.93;2.67;;;11.80;99.90;;;;;;5122638;27;20476;-61
2022/05/14 12:47:06;;;;;;;3.13;2.00;;;11.80;99.90;;;;;;5122992;27;20479;-61
2022/05/14 12:49:42;;;;;;;4.80;2.37;;;11.80;99.90;;;;;;5121825;28;20508;-61
2022/05/14 12:52:16;;;;;;;3.33;2.60;;;11.80;99.90;;;;;;5111598;27;20824;-61
2022/05/14 12:54:53;;;;;;;2.50;2.30;;;11.80;99.90;;;;;;5115936;27;20469;-62
2022/05/14 12:57:24;;;;;;;3.40;2.37;;;11.80;99.90;;;;;;5119649;27;20459;-62
2022/05/14 12:59:56;;;;;;;2.80;2.60;;;11.80;99.90;;;;;;5122706;27;20837;-62
2022/05/14 13:02:30;;;;;;;4.27;3.03;;;11.80;99.90;;;;;;5121613;27;20491;-62
2022/05/14 13:05:06;;;;;;;2.63;2.33;;;11.90;99.90;;;;;;5122031;27;20540;-62
2022/05/14 13:07:47;;;;;;;2.97;2.67;;;11.90;99.90;;;;;;5109892;28;20533;-62
2022/05/14 13:10:22;;;;;;;2.67;2.47;;;11.90;99.90;;;;;;5122531;28;20467;-62
2022/05/14 13:12:56;;;;;;;3.50;3.20;;;11.90;99.90;;;;;;5122708;28;20468;-62
2022/05/14 13:15:35;;;;;;;4.47;3.67;;;11.90;99.90;;;;;;5121142;27;20484;-62
2022/05/14 13:18:21;;;;;;;4.03;3.43;;;11.90;99.90;;;;;;5135245;27;20465;-62
2022/05/14 13:21:00;;;;;;;3.30;3.00;;;11.90;99.90;;;;;;5122008;27;20472;-62
2022/05/14 13:23:31;;;;;;;3.63;2.93;;;12.00;99.90;;;;;;5120028;28;20458;-62
2022/05/14 13:26:05;;;;;;;3.43;2.77;;;12.00;99.90;;;;;;5121631;27;20462;-62
2022/05/14 13:28:37;;;;;;;3.20;2.90;;;12.00;99.90;;;;;;5121980;28;20466;-62
2022/05/14 13:31:21;;;;;;;2.57;2.40;;;12.10;99.90;;;;;;5122503;27;20464;-62
2022/05/14 13:37:07;;;;;;;2.50;1.77;;;12.20;99.90;;;;;;5119204;27;20538;-62
2022/05/14 13:37:11;;;;;;;2.90;2.43;;;12.30;99.90;;;;;;5122488;27;20503;-62
2022/05/14 13:39:46;;;;;;;2.27;2.07;;;12.50;99.90;;;;;;5121229;28;20459;-62
2022/05/14 13:42:26;;;;;;;3.47;1.67;;;12.50;99.90;;;;;;5123084;27;20476;-61